sensor_id;sensor_type;location;lat;lon;timestamp;pressure;altitude;pressure_sealevel;temperature;humidity
36828;BME280;22766;48.042;11.192;2023-02-18T00:01:24;95925.72;;;11.04;100.00
36828;BME280;22766;48.042;11.192;2023-02-18T00:03:52;95920.72;;;11.02;100.00
36828;BME280;22766;48.042;11.192;2023-02-18T00:06:26;95922.75;;;10.99;100.00
36828;BME280;22766;48.042;11.192;2023-02-18T00:08:53;95920.00;;;10.91;100.00
36828;BME280;22766;48.042;11.192;2023-02-18T00:11:21;95924.25;;;11.01;100.00
36828;BME280;22766;48.042;11.192;2023-02-18T00:13:53;95916.78;;;11.08;100.00
36828;BME280;22766;48.042;11.192;2023-02-18T00:16:20;95907.53;;;11.05;100.00
36828;BME280;22766;48.042;11.192;2023-02-18T00:18:47;95913.06;;;10.91;100.00
36828;BME280;22766;48.042;11.192;2023-02-18T00:21:14;95921.44;;;10.74;100.00
36828;BME280;22766;48.042;11.192;2023-02-18T00:23:42;95917.78;;;10.77;100.00
36828;BME280;22766;48.042;11.192;2023-02-18T00:26:12;95909.16;;;10.57;100.00
36828;BME280;22766;48.042;11.192;2023-02-18T00:28:40;95906.22;;;10.71;100.00
36828;BME280;22766;48.042;11.192;2023-02-18T00:31:07;95907.66;;;10.64;100.00
36828;BME280;22766;48.042;11.192;2023-02-18T00:33:35;95901.72;;;10.73;100.00
36828;BME280;22766;48.042;11.192;2023-02-18T00:36:08;95892.63;;;10.69;100.00
36828;BME280;22766;48.042;11.192;2023-02-18T00:38:35;95904.28;;;10.64;100.00
36828;BME280;22766;48.042;11.192;2023-02-18T00:41:03;95892.03;;;10.66;100.00
36828;BME280;22766;48.042;11.192;2023-02-18T00:43:30;95894.72;;;10.55;100.00
36828;BME280;22766;48.042;11.192;2023-02-18T00:45:57;95901.31;;;10.38;100.00
36828;BME280;22766;48.042;11.192;2023-02-18T00:48:24;95895.59;;;10.34;100.00
36828;BME280;22766;48.042;11.192;2023-02-18T00:50:50;95882.97;;;10.41;100.00
36828;BME280;22766;48.042;11.192;2023-02-18T00:53:17;95888.53;;;10.37;100.00
36828;BME280;22766;48.042;11.192;2023-02-18T00:55:45;95895.09;;;10.41;100.00
36828;BME280;22766;48.042;11.192;2023-02-18T00:58:15;95894.16;;;10.51;100.00
36828;BME280;22766;48.042;11.192;2023-02-18T01:00:43;95896.56;;;10.43;100.00
36828;BME280;22766;48.042;11.192;2023-02-18T01:03:11;95893.88;;;10.45;100.00
36828;BME280;22766;48.042;11.192;2023-02-18T01:05:38;95885.41;;;10.33;100.00
36828;BME280;22766;48.042;11.192;2023-02-18T01:08:06;95889.06;;;10.30;100.00
36828;BME280;22766;48.042;11.192;2023-02-18T01:10:39;95886.47;;;10.30;100.00
36828;BME280;22766;48.042;11.192;2023-02-18T01:13:09;95878.13;;;10.17;100.00
36828;BME280;22766;48.042;11.192;2023-02-18T01:15:38;95880.75;;;10.27;100.00
36828;BME280;22766;48.042;11.192;2023-02-18T01:18:05;95870.94;;;10.21;100.00
36828;BME280;22766;48.042;11.192;2023-02-18T01:20:34;95870.16;;;10.30;100.00
36828;BME280;22766;48.042;11.192;2023-02-18T01:23:02;95872.84;;;10.19;100.00
36828;BME280;22766;48.042;11.192;2023-02-18T01:25:30;95869.56;;;10.17;100.00
36828;BME280;22766;48.042;11.192;2023-02-18T01:27:57;95870.25;;;10.19;100.00
36828;BME280;22766;48.042;11.192;2023-02-18T01:30:24;95879.09;;;10.26;100.00
36828;BME280;22766;48.042;11.192;2023-02-18T01:32:50;95863.84;;;10.13;100.00
36828;BME280;22766;48.042;11.192;2023-02-18T01:35:19;95869.69;;;9.95;100.00
36828;BME280;22766;48.042;11.192;2023-02-18T01:37:46;95857.16;;;10.11;100.00
36828;BME280;22766;48.042;11.192;2023-02-18T01:40:15;95860.88;;;10.18;100.00
36828;BME280;22766;48.042;11.192;2023-02-18T01:42:43;95857.06;;;10.22;100.00
36828;BME280;22766;48.042;11.192;2023-02-18T01:48:21;95844.22;;;10.31;100.00
36828;BME280;22766;48.042;11.192;2023-02-18T01:51:02;95850.50;;;10.39;100.00
36828;BME280;22766;48.042;11.192;2023-02-18T01:53:43;95852.59;;;10.24;100.00
36828;BME280;22766;48.042;11.192;2023-02-18T01:56:17;95850.06;;;10.33;100.00
36828;BME280;22766;48.042;11.192;2023-02-18T01:58:46;95850.03;;;10.24;100.00
36828;BME280;22766;48.042;11.192;2023-02-18T02:01:13;95847.16;;;10.17;100.00
36828;BME280;22766;48.042;11.192;2023-02-18T02:03:40;95845.72;;;10.34;100.00
36828;BME280;22766;48.042;11.192;2023-02-18T02:06:19;95847.34;;;10.25;100.00
36828;BME280;22766;48.042;11.192;2023-02-18T02:08:50;95846.31;;;10.47;100.00
36828;BME280;22766;48.042;11.192;2023-02-18T02:17:27;95828.25;;;10.47;100.00
36828;BME280;22766;48.042;11.192;2023-02-18T02:20:29;95823.78;;;10.49;100.00
36828;BME280;22766;48.042;11.192;2023-02-18T02:31:30;95834.78;;;10.51;100.00
36828;BME280;22766;48.042;11.192;2023-02-18T02:40:00;95831.69;;;10.57;100.00
36828;BME280;22766;48.042;11.192;2023-02-18T02:48:03;95831.13;;;10.54;100.00
36828;BME280;22766;48.042;11.192;2023-02-18T02:53:05;95831.38;;;10.51;100.00
36828;BME280;22766;48.042;11.192;2023-02-18T02:55:34;95823.78;;;10.59;100.00
36828;BME280;22766;48.042;11.192;2023-02-18T02:58:01;95821.03;;;10.41;100.00
36828;BME280;22766;48.042;11.192;2023-02-18T03:01:02;95809.94;;;10.50;100.00
36828;BME280;22766;48.042;11.192;2023-02-18T03:03:47;95807.91;;;10.54;100.00
36828;BME280;22766;48.042;11.192;2023-02-18T03:11:15;95804.75;;;10.41;100.00
36828;BME280;22766;48.042;11.192;2023-02-18T03:13:56;95805.97;;;10.46;100.00
36828;BME280;22766;48.042;11.192;2023-02-18T03:16:58;95811.28;;;10.45;100.00
36828;BME280;22766;48.042;11.192;2023-02-18T03:21:59;95806.59;;;10.29;100.00
36828;BME280;22766;48.042;11.192;2023-02-18T03:24:32;95802.50;;;10.26;100.00
36828;BME280;22766;48.042;11.192;2023-02-18T03:27:07;95797.22;;;10.28;100.00
36828;BME280;22766;48.042;11.192;2023-02-18T03:29:35;95800.63;;;10.28;100.00
36828;BME280;22766;48.042;11.192;2023-02-18T03:32:05;95793.56;;;10.30;100.00
36828;BME280;22766;48.042;11.192;2023-02-18T03:34:38;95798.38;;;10.14;100.00
36828;BME280;22766;48.042;11.192;2023-02-18T03:37:07;95804.50;;;10.13;100.00
36828;BME280;22766;48.042;11.192;2023-02-18T03:39:36;95793.50;;;10.11;100.00
36828;BME280;22766;48.042;11.192;2023-02-18T03:42:04;95799.34;;;10.13;100.00
36828;BME280;22766;48.042;11.192;2023-02-18T03:44:31;95803.53;;;10.14;100.00
36828;BME280;22766;48.042;11.192;2023-02-18T03:46:58;95801.56;;;10.27;100.00
36828;BME280;22766;48.042;11.192;2023-02-18T03:49:25;95804.03;;;10.08;100.00
36828;BME280;22766;48.042;11.192;2023-02-18T03:51:52;95799.69;;;10.09;100.00
36828;BME280;22766;48.042;11.192;2023-02-18T03:54:19;95808.44;;;10.17;100.00
36828;BME280;22766;48.042;11.192;2023-02-18T03:56:46;95804.91;;;10.18;100.00
36828;BME280;22766;48.042;11.192;2023-02-18T03:59:12;95807.38;;;10.20;100.00
36828;BME280;22766;48.042;11.192;2023-02-18T04:01:39;95807.41;;;10.09;100.00
36828;BME280;22766;48.042;11.192;2023-02-18T04:04:06;95808.00;;;10.12;100.00
36828;BME280;22766;48.042;11.192;2023-02-18T04:06:33;95799.94;;;10.06;100.00
36828;BME280;22766;48.042;11.192;2023-02-18T04:09:00;95804.34;;;10.15;100.00
36828;BME280;22766;48.042;11.192;2023-02-18T04:11:28;95794.88;;;10.15;100.00
36828;BME280;22766;48.042;11.192;2023-02-18T04:13:54;95794.44;;;10.10;100.00
36828;BME280;22766;48.042;11.192;2023-02-18T04:16:21;95793.84;;;10.07;100.00
36828;BME280;22766;48.042;11.192;2023-02-18T04:18:48;95794.25;;;10.02;100.00
36828;BME280;22766;48.042;11.192;2023-02-18T04:21:15;95795.25;;;10.11;100.00
36828;BME280;22766;48.042;11.192;2023-02-18T04:23:42;95794.94;;;10.04;100.00
36828;BME280;22766;48.042;11.192;2023-02-18T04:26:08;95801.78;;;10.15;100.00
36828;BME280;22766;48.042;11.192;2023-02-18T04:28:35;95801.91;;;10.13;100.00
36828;BME280;22766;48.042;11.192;2023-02-18T04:31:02;95810.72;;;10.11;100.00
36828;BME280;22766;48.042;11.192;2023-02-18T04:33:29;95804.84;;;10.09;100.00
36828;BME280;22766;48.042;11.192;2023-02-18T04:35:56;95797.09;;;10.09;100.00
36828;BME280;22766;48.042;11.192;2023-02-18T04:38:23;95800.03;;;10.15;100.00
36828;BME280;22766;48.042;11.192;2023-02-18T04:40:49;95802.13;;;10.01;100.00
36828;BME280;22766;48.042;11.192;2023-02-18T04:43:16;95804.41;;;10.04;100.00
36828;BME280;22766;48.042;11.192;2023-02-18T04:45:43;95801.84;;;10.04;100.00
36828;BME280;22766;48.042;11.192;2023-02-18T04:48:10;95801.28;;;10.00;100.00
36828;BME280;22766;48.042;11.192;2023-02-18T04:50:36;95811.56;;;10.11;100.00
36828;BME280;22766;48.042;11.192;2023-02-18T04:53:03;95804.16;;;10.07;100.00
36828;BME280;22766;48.042;11.192;2023-02-18T04:55:30;95809.78;;;10.12;100.00
36828;BME280;22766;48.042;11.192;2023-02-18T04:57:57;95815.38;;;10.17;100.00
36828;BME280;22766;48.042;11.192;2023-02-18T05:00:23;95808.97;;;10.11;100.00
36828;BME280;22766;48.042;11.192;2023-02-18T05:02:50;95801.09;;;10.13;100.00
36828;BME280;22766;48.042;11.192;2023-02-18T05:05:17;95819.53;;;10.08;100.00
36828;BME280;22766;48.042;11.192;2023-02-18T05:07:44;95814.06;;;10.02;100.00
36828;BME280;22766;48.042;11.192;2023-02-18T05:10:14;95821.28;;;10.08;100.00
36828;BME280;22766;48.042;11.192;2023-02-18T05:12:41;95815.44;;;10.06;100.00
36828;BME280;22766;48.042;11.192;2023-02-18T05:15:08;95807.41;;;10.09;100.00
36828;BME280;22766;48.042;11.192;2023-02-18T05:17:35;95811.28;;;9.94;100.00
36828;BME280;22766;48.042;11.192;2023-02-18T05:20:02;95815.69;;;10.03;100.00
36828;BME280;22766;48.042;11.192;2023-02-18T05:22:29;95816.63;;;10.02;100.00
36828;BME280;22766;48.042;11.192;2023-02-18T05:24:56;95813.13;;;10.03;100.00
36828;BME280;22766;48.042;11.192;2023-02-18T05:27:22;95800.09;;;10.04;100.00
36828;BME280;22766;48.042;11.192;2023-02-18T05:29:49;95801.72;;;10.05;100.00
36828;BME280;22766;48.042;11.192;2023-02-18T05:32:16;95787.56;;;10.00;100.00
36828;BME280;22766;48.042;11.192;2023-02-18T05:34:43;95789.47;;;9.98;100.00
36828;BME280;22766;48.042;11.192;2023-02-18T05:37:09;95791.91;;;9.99;100.00
36828;BME280;22766;48.042;11.192;2023-02-18T05:39:36;95790.25;;;9.89;100.00
36828;BME280;22766;48.042;11.192;2023-02-18T05:42:03;95789.28;;;9.90;100.00
36828;BME280;22766;48.042;11.192;2023-02-18T05:44:30;95799.63;;;9.99;100.00
36828;BME280;22766;48.042;11.192;2023-02-18T05:46:58;95802.50;;;9.96;100.00
36828;BME280;22766;48.042;11.192;2023-02-18T05:49:27;95801.28;;;10.00;100.00
36828;BME280;22766;48.042;11.192;2023-02-18T05:51:54;95790.41;;;9.97;100.00
36828;BME280;22766;48.042;11.192;2023-02-18T05:54:21;95792.88;;;9.98;100.00
36828;BME280;22766;48.042;11.192;2023-02-18T05:56:49;95795.03;;;9.93;100.00
36828;BME280;22766;48.042;11.192;2023-02-18T05:59:16;95792.53;;;9.92;100.00
36828;BME280;22766;48.042;11.192;2023-02-18T06:01:43;95790.78;;;9.92;100.00
36828;BME280;22766;48.042;11.192;2023-02-18T06:04:10;95780.06;;;9.87;100.00
36828;BME280;22766;48.042;11.192;2023-02-18T06:06:37;95777.84;;;9.83;100.00
36828;BME280;22766;48.042;11.192;2023-02-18T06:09:04;95786.19;;;9.96;100.00
36828;BME280;22766;48.042;11.192;2023-02-18T06:11:32;95783.09;;;10.02;100.00
36828;BME280;22766;48.042;11.192;2023-02-18T06:13:59;95783.38;;;9.99;100.00
36828;BME280;22766;48.042;11.192;2023-02-18T06:16:26;95789.63;;;9.76;100.00
36828;BME280;22766;48.042;11.192;2023-02-18T06:18:53;95794.44;;;9.90;100.00
36828;BME280;22766;48.042;11.192;2023-02-18T06:21:19;95790.19;;;9.79;100.00
36828;BME280;22766;48.042;11.192;2023-02-18T06:23:46;95808.97;;;9.91;100.00
36828;BME280;22766;48.042;11.192;2023-02-18T06:26:13;95807.28;;;9.80;100.00
36828;BME280;22766;48.042;11.192;2023-02-18T06:28:40;95808.06;;;10.01;100.00
36828;BME280;22766;48.042;11.192;2023-02-18T06:31:07;95802.91;;;10.01;100.00
36828;BME280;22766;48.042;11.192;2023-02-18T06:33:34;95805.78;;;9.78;100.00
36828;BME280;22766;48.042;11.192;2023-02-18T06:36:04;95807.03;;;9.83;100.00
36828;BME280;22766;48.042;11.192;2023-02-18T06:38:38;95813.31;;;9.90;100.00
36828;BME280;22766;48.042;11.192;2023-02-18T06:41:06;95812.31;;;10.02;100.00
36828;BME280;22766;48.042;11.192;2023-02-18T06:43:33;95807.22;;;9.91;100.00
36828;BME280;22766;48.042;11.192;2023-02-18T06:46:01;95811.56;;;9.91;100.00
36828;BME280;22766;48.042;11.192;2023-02-18T06:48:28;95803.41;;;9.95;100.00
36828;BME280;22766;48.042;11.192;2023-02-18T06:50:54;95800.41;;;9.90;100.00
36828;BME280;22766;48.042;11.192;2023-02-18T06:53:21;95808.28;;;9.89;100.00
36828;BME280;22766;48.042;11.192;2023-02-18T06:55:48;95805.13;;;10.06;100.00
36828;BME280;22766;48.042;11.192;2023-02-18T06:58:15;95804.03;;;10.08;100.00
36828;BME280;22766;48.042;11.192;2023-02-18T07:00:43;95807.38;;;10.20;100.00
36828;BME280;22766;48.042;11.192;2023-02-18T07:03:12;95813.75;;;10.16;100.00
36828;BME280;22766;48.042;11.192;2023-02-18T07:05:40;95803.81;;;10.11;100.00
36828;BME280;22766;48.042;11.192;2023-02-18T07:08:07;95813.00;;;10.04;100.00
36828;BME280;22766;48.042;11.192;2023-02-18T07:10:34;95805.69;;;10.09;100.00
36828;BME280;22766;48.042;11.192;2023-02-18T07:13:04;95802.81;;;10.03;100.00
36828;BME280;22766;48.042;11.192;2023-02-18T07:15:30;95798.69;;;10.21;100.00
36828;BME280;22766;48.042;11.192;2023-02-18T07:17:57;95793.53;;;10.21;100.00
36828;BME280;22766;48.042;11.192;2023-02-18T07:20:25;95793.53;;;10.21;100.00
36828;BME280;22766;48.042;11.192;2023-02-18T07:22:53;95794.75;;;10.26;100.00
36828;BME280;22766;48.042;11.192;2023-02-18T07:25:23;95799.03;;;10.37;100.00
36828;BME280;22766;48.042;11.192;2023-02-18T07:27:51;95801.91;;;10.13;100.00
36828;BME280;22766;48.042;11.192;2023-02-18T07:30:18;95794.06;;;10.24;100.00
36828;BME280;22766;48.042;11.192;2023-02-18T07:32:46;95797.63;;;10.23;100.00
36828;BME280;22766;48.042;11.192;2023-02-18T07:35:13;95796.63;;;10.15;100.00
36828;BME280;22766;48.042;11.192;2023-02-18T07:37:47;95798.41;;;10.24;100.00
36828;BME280;22766;48.042;11.192;2023-02-18T07:40:19;95791.63;;;10.23;100.00
36828;BME280;22766;48.042;11.192;2023-02-18T07:42:46;95797.91;;;10.30;100.00
36828;BME280;22766;48.042;11.192;2023-02-18T07:45:13;95791.53;;;10.34;100.00
36828;BME280;22766;48.042;11.192;2023-02-18T07:47:41;95798.34;;;10.35;100.00
36828;BME280;22766;48.042;11.192;2023-02-18T07:50:09;95783.25;;;10.40;100.00
36828;BME280;22766;48.042;11.192;2023-02-18T07:52:35;95790.91;;;10.51;100.00
36828;BME280;22766;48.042;11.192;2023-02-18T07:55:02;95787.09;;;10.55;100.00
36828;BME280;22766;48.042;11.192;2023-02-18T07:57:29;95790.38;;;10.57;100.00
36828;BME280;22766;48.042;11.192;2023-02-18T07:59:56;95791.06;;;10.69;100.00
36828;BME280;22766;48.042;11.192;2023-02-18T08:02:23;95787.41;;;10.71;100.00
36828;BME280;22766;48.042;11.192;2023-02-18T08:04:50;95793.66;;;10.69;100.00
36828;BME280;22766;48.042;11.192;2023-02-18T08:07:19;95792.59;;;10.81;100.00
36828;BME280;22766;48.042;11.192;2023-02-18T08:09:47;95801.81;;;10.83;100.00
36828;BME280;22766;48.042;11.192;2023-02-18T08:12:18;95791.34;;;10.75;100.00
36828;BME280;22766;48.042;11.192;2023-02-18T08:14:45;95795.84;;;10.83;100.00
36828;BME280;22766;48.042;11.192;2023-02-18T08:17:12;95798.16;;;10.86;100.00
36828;BME280;22766;48.042;11.192;2023-02-18T08:19:38;95796.41;;;10.86;100.00
36828;BME280;22766;48.042;11.192;2023-02-18T08:22:05;95791.94;;;10.88;100.00
36828;BME280;22766;48.042;11.192;2023-02-18T08:24:32;95782.25;;;10.81;100.00
36828;BME280;22766;48.042;11.192;2023-02-18T08:26:58;95791.91;;;10.79;100.00
36828;BME280;22766;48.042;11.192;2023-02-18T08:29:28;95797.19;;;10.77;100.00
36828;BME280;22766;48.042;11.192;2023-02-18T08:31:55;95793.38;;;10.72;100.00
36828;BME280;22766;48.042;11.192;2023-02-18T08:34:24;95802.25;;;10.79;100.00
36828;BME280;22766;48.042;11.192;2023-02-18T08:36:51;95789.44;;;10.87;100.00
36828;BME280;22766;48.042;11.192;2023-02-18T08:39:17;95791.66;;;10.91;100.00
36828;BME280;22766;48.042;11.192;2023-02-18T08:41:44;95792.03;;;10.87;100.00
36828;BME280;22766;48.042;11.192;2023-02-18T08:44:11;95778.56;;;10.64;100.00
36828;BME280;22766;48.042;11.192;2023-02-18T08:46:38;95785.50;;;10.73;100.00
36828;BME280;22766;48.042;11.192;2023-02-18T08:49:05;95777.50;;;10.76;100.00
36828;BME280;22766;48.042;11.192;2023-02-18T08:51:32;95772.06;;;10.89;100.00
36828;BME280;22766;48.042;11.192;2023-02-18T08:53:59;95784.28;;;10.87;100.00
36828;BME280;22766;48.042;11.192;2023-02-18T08:56:26;95780.50;;;11.00;100.00
36828;BME280;22766;48.042;11.192;2023-02-18T08:58:52;95782.53;;;11.06;100.00
36828;BME280;22766;48.042;11.192;2023-02-18T09:01:19;95778.34;;;11.15;100.00
36828;BME280;22766;48.042;11.192;2023-02-18T09:03:46;95788.25;;;11.00;100.00
36828;BME280;22766;48.042;11.192;2023-02-18T09:06:14;95781.47;;;11.09;100.00
36828;BME280;22766;48.042;11.192;2023-02-18T09:08:41;95770.16;;;11.29;100.00
36828;BME280;22766;48.042;11.192;2023-02-18T09:11:09;95766.16;;;11.54;100.00
36828;BME280;22766;48.042;11.192;2023-02-18T09:13:36;95767.53;;;11.67;100.00
36828;BME280;22766;48.042;11.192;2023-02-18T09:16:11;95752.91;;;11.85;100.00
36828;BME280;22766;48.042;11.192;2023-02-18T09:18:39;95759.13;;;12.02;100.00
36828;BME280;22766;48.042;11.192;2023-02-18T09:21:07;95755.31;;;12.23;100.00
36828;BME280;22766;48.042;11.192;2023-02-18T09:23:35;95750.00;;;12.52;98.92
36828;BME280;22766;48.042;11.192;2023-02-18T09:26:05;95752.69;;;12.60;95.08
36828;BME280;22766;48.042;11.192;2023-02-18T09:28:33;95754.59;;;12.31;96.28
36828;BME280;22766;48.042;11.192;2023-02-18T09:31:08;95748.72;;;12.11;98.61
36828;BME280;22766;48.042;11.192;2023-02-18T09:33:40;95745.34;;;12.01;99.41
36828;BME280;22766;48.042;11.192;2023-02-18T09:36:09;95748.28;;;12.16;98.76
36828;BME280;22766;48.042;11.192;2023-02-18T09:38:36;95747.41;;;12.35;95.65
36828;BME280;22766;48.042;11.192;2023-02-18T09:41:08;95746.16;;;12.29;96.65
36828;BME280;22766;48.042;11.192;2023-02-18T09:43:46;95739.53;;;12.27;97.64
36828;BME280;22766;48.042;11.192;2023-02-18T09:46:19;95732.78;;;12.34;95.12
36828;BME280;22766;48.042;11.192;2023-02-18T09:48:48;95735.53;;;12.32;95.66
36828;BME280;22766;48.042;11.192;2023-02-18T09:51:17;95725.13;;;12.42;95.30
36828;BME280;22766;48.042;11.192;2023-02-18T09:53:45;95720.44;;;12.72;91.98
36828;BME280;22766;48.042;11.192;2023-02-18T09:56:14;95715.81;;;13.37;88.34
36828;BME280;22766;48.042;11.192;2023-02-18T09:58:45;95721.53;;;13.74;85.10
36828;BME280;22766;48.042;11.192;2023-02-18T10:04:00;95717.81;;;14.44;77.99
36828;BME280;22766;48.042;11.192;2023-02-18T10:06:33;95720.56;;;14.00;78.98
36828;BME280;22766;48.042;11.192;2023-02-18T10:09:03;95707.97;;;14.22;79.31
36828;BME280;22766;48.042;11.192;2023-02-18T10:11:40;95705.88;;;14.75;74.88
36828;BME280;22766;48.042;11.192;2023-02-18T10:14:12;95691.91;;;14.76;72.77
36828;BME280;22766;48.042;11.192;2023-02-18T10:16:42;95692.72;;;14.84;74.18
36828;BME280;22766;48.042;11.192;2023-02-18T10:19:24;95679.72;;;15.09;69.73
36828;BME280;22766;48.042;11.192;2023-02-18T10:21:53;95686.06;;;15.14;68.56
36828;BME280;22766;48.042;11.192;2023-02-18T10:24:24;95680.06;;;15.30;67.70
36828;BME280;22766;48.042;11.192;2023-02-18T10:26:53;95676.50;;;15.15;67.96
36828;BME280;22766;48.042;11.192;2023-02-18T10:29:22;95662.50;;;14.99;67.80
36828;BME280;22766;48.042;11.192;2023-02-18T10:37:15;95655.69;;;15.15;68.90
36828;BME280;22766;48.042;11.192;2023-02-18T10:43:06;95646.38;;;15.60;64.86
36828;BME280;22766;48.042;11.192;2023-02-18T10:51:14;95650.47;;;15.31;64.65
36828;BME280;22766;48.042;11.192;2023-02-18T10:53:43;95647.06;;;15.30;64.00
36828;BME280;22766;48.042;11.192;2023-02-18T10:59:24;95631.75;;;15.98;60.56
36828;BME280;22766;48.042;11.192;2023-02-18T11:01:57;95637.16;;;15.88;58.78
36828;BME280;22766;48.042;11.192;2023-02-18T11:04:37;95638.59;;;15.28;60.77
36828;BME280;22766;48.042;11.192;2023-02-18T11:07:11;95629.97;;;15.20;62.66
36828;BME280;22766;48.042;11.192;2023-02-18T11:09:45;95632.88;;;15.49;62.64
36828;BME280;22766;48.042;11.192;2023-02-18T11:17:41;95605.88;;;15.97;58.26
36828;BME280;22766;48.042;11.192;2023-02-18T11:20:22;95594.38;;;16.14;56.74
36828;BME280;22766;48.042;11.192;2023-02-18T11:22:49;95587.28;;;16.30;56.62
36828;BME280;22766;48.042;11.192;2023-02-18T11:25:30;95587.59;;;16.35;56.79
36828;BME280;22766;48.042;11.192;2023-02-18T11:30:47;95584.22;;;15.96;56.64
36828;BME280;22766;48.042;11.192;2023-02-18T11:33:20;95583.31;;;15.34;59.21
36828;BME280;22766;48.042;11.192;2023-02-18T11:35:53;95573.53;;;15.36;60.06
36828;BME280;22766;48.042;11.192;2023-02-18T11:38:34;95562.38;;;15.12;60.23
36828;BME280;22766;48.042;11.192;2023-02-18T11:41:10;95569.03;;;15.14;61.17
36828;BME280;22766;48.042;11.192;2023-02-18T11:43:46;95562.03;;;15.15;61.53
36828;BME280;22766;48.042;11.192;2023-02-18T11:46:21;95564.34;;;15.02;61.91
36828;BME280;22766;48.042;11.192;2023-02-18T11:48:49;95553.28;;;15.08;62.14
36828;BME280;22766;48.042;11.192;2023-02-18T11:51:22;95558.56;;;15.46;61.25
36828;BME280;22766;48.042;11.192;2023-02-18T11:54:04;95558.50;;;16.24;57.91
36828;BME280;22766;48.042;11.192;2023-02-18T11:56:33;95551.22;;;16.64;55.09
36828;BME280;22766;48.042;11.192;2023-02-18T11:59:02;95555.06;;;16.91;54.93
36828;BME280;22766;48.042;11.192;2023-02-18T12:01:37;95548.81;;;17.44;51.98
36828;BME280;22766;48.042;11.192;2023-02-18T12:04:12;95548.97;;;17.42;52.40
36828;BME280;22766;48.042;11.192;2023-02-18T12:09:28;95541.72;;;16.49;54.94
36828;BME280;22766;48.042;11.192;2023-02-18T12:12:04;95537.25;;;16.35;54.04
36828;BME280;22766;48.042;11.192;2023-02-18T12:14:31;95530.59;;;16.32;55.98
36828;BME280;22766;48.042;11.192;2023-02-18T12:46:01;95501.09;;;15.56;56.43
36828;BME280;22766;48.042;11.192;2023-02-18T12:49:02;95496.28;;;15.45;57.17
36828;BME280;22766;48.042;11.192;2023-02-18T12:54:12;95493.00;;;15.51;57.88
36828;BME280;22766;48.042;11.192;2023-02-18T12:57:01;95495.63;;;15.81;58.36
36828;BME280;22766;48.042;11.192;2023-02-18T13:13:23;95494.72;;;15.66;57.41
36828;BME280;22766;48.042;11.192;2023-02-18T13:18:29;95458.69;;;15.78;56.72
36828;BME280;22766;48.042;11.192;2023-02-18T13:21:00;95462.81;;;15.34;57.69
36828;BME280;22766;48.042;11.192;2023-02-18T13:23:34;95462.28;;;15.46;57.49
36828;BME280;22766;48.042;11.192;2023-02-18T13:26:04;95466.16;;;15.81;57.00
36828;BME280;22766;48.042;11.192;2023-02-18T13:39:55;95456.50;;;17.30;50.16
36828;BME280;22766;48.042;11.192;2023-02-18T13:47:45;95467.03;;;18.08;47.57
36828;BME280;22766;48.042;11.192;2023-02-18T13:52:41;95450.34;;;17.88;48.68
36828;BME280;22766;48.042;11.192;2023-02-18T13:55:21;95456.19;;;18.11;47.85
36828;BME280;22766;48.042;11.192;2023-02-18T13:57:52;95460.28;;;17.99;48.28
36828;BME280;22766;48.042;11.192;2023-02-18T14:00:23;95468.09;;;17.28;50.52
36828;BME280;22766;48.042;11.192;2023-02-18T14:02:58;95461.59;;;16.65;52.77
36828;BME280;22766;48.042;11.192;2023-02-18T14:05:40;95470.41;;;16.05;55.49
36828;BME280;22766;48.042;11.192;2023-02-18T14:08:15;95465.41;;;16.18;54.52
36828;BME280;22766;48.042;11.192;2023-02-18T14:13:48;95469.75;;;16.25;54.91
36828;BME280;22766;48.042;11.192;2023-02-18T14:16:18;95464.38;;;16.04;55.53
36828;BME280;22766;48.042;11.192;2023-02-18T14:29:05;95457.53;;;15.11;58.87
36828;BME280;22766;48.042;11.192;2023-02-18T14:31:53;95484.84;;;15.07;58.12
36828;BME280;22766;48.042;11.192;2023-02-18T14:34:36;95469.94;;;15.40;57.87
36828;BME280;22766;48.042;11.192;2023-02-18T14:50:56;95470.47;;;16.34;53.28
36828;BME280;22766;48.042;11.192;2023-02-18T14:53:26;95478.78;;;16.89;51.05
36828;BME280;22766;48.042;11.192;2023-02-18T14:55:58;95468.34;;;16.60;50.81
36828;BME280;22766;48.042;11.192;2023-02-18T14:58:34;95473.25;;;16.32;49.75
36828;BME280;22766;48.042;11.192;2023-02-18T15:01:12;95476.09;;;16.23;50.70
36828;BME280;22766;48.042;11.192;2023-02-18T15:03:43;95469.38;;;16.28;49.93
36828;BME280;22766;48.042;11.192;2023-02-18T15:06:36;95465.28;;;15.88;51.81
36828;BME280;22766;48.042;11.192;2023-02-18T15:09:20;95472.34;;;15.80;52.68
36828;BME280;22766;48.042;11.192;2023-02-18T15:11:49;95461.53;;;15.30;54.09
36828;BME280;22766;48.042;11.192;2023-02-18T15:14:24;95471.09;;;14.98;56.28
36828;BME280;22766;48.042;11.192;2023-02-18T15:16:52;95467.94;;;14.48;57.62
36828;BME280;22766;48.042;11.192;2023-02-18T15:19:24;95462.25;;;14.13;58.91
36828;BME280;22766;48.042;11.192;2023-02-18T15:21:54;95474.72;;;14.01;59.99
36828;BME280;22766;48.042;11.192;2023-02-18T15:24:36;95469.41;;;14.35;56.75
36828;BME280;22766;48.042;11.192;2023-02-18T15:27:13;95465.63;;;14.69;55.42
36828;BME280;22766;48.042;11.192;2023-02-18T15:29:41;95472.06;;;14.89;53.52
36828;BME280;22766;48.042;11.192;2023-02-18T15:32:23;95476.84;;;14.62;55.17
36828;BME280;22766;48.042;11.192;2023-02-18T15:35:01;95489.16;;;14.76;53.49
36828;BME280;22766;48.042;11.192;2023-02-18T15:37:29;95475.75;;;14.32;54.84
36828;BME280;22766;48.042;11.192;2023-02-18T15:39:56;95481.22;;;13.97;56.32
36828;BME280;22766;48.042;11.192;2023-02-18T15:42:31;95477.91;;;13.63;57.69
36828;BME280;22766;48.042;11.192;2023-02-18T15:45:13;95485.66;;;13.39;59.52